createdAt,value
2022-07-26T00:02:30.148Z,11.60
2022-07-26T00:05:00.529Z,9.80
2022-07-26T00:07:36.625Z,16.60
2022-07-26T00:10:04.199Z,10.40
2022-07-26T00:12:35.254Z,12.60
2022-07-26T00:15:08.392Z,15.80
2022-07-26T00:17:39.594Z,11.20
2022-07-26T00:20:10.973Z,14.20
2022-07-26T00:22:41.459Z,11.60
2022-07-26T00:25:11.741Z,10.20
2022-07-26T00:27:42.184Z,11.00
2022-07-26T00:30:14.862Z,13.40
2022-07-26T00:32:45.497Z,13.00
2022-07-26T00:35:16.128Z,14.80
2022-07-26T00:37:47.578Z,11.60
2022-07-26T00:40:18.544Z,15.80
2022-07-26T00:42:53.344Z,12.00
2022-07-26T00:45:24.034Z,13.60
2022-07-26T00:47:54.487Z,10.00
2022-07-26T00:50:24.958Z,15.20
2022-07-26T00:52:55.469Z,11.00
2022-07-26T00:55:26.119Z,15.60
2022-07-26T00:57:57.804Z,14.20
2022-07-26T01:00:28.739Z,13.00
2022-07-26T01:02:59.247Z,13.20
2022-07-26T01:05:32.103Z,11.40
2022-07-26T01:08:03.929Z,14.20
2022-07-26T01:10:35.114Z,13.80
2022-07-26T01:13:05.949Z,12.40
2022-07-26T01:15:37.405Z,12.80
2022-07-26T01:18:07.843Z,12.40
2022-07-26T01:20:38.545Z,14.40
2022-07-26T01:23:15.817Z,13.00
2022-07-26T01:25:48.773Z,13.40
2022-07-26T01:28:20.557Z,12.00
2022-07-26T01:30:50.999Z,13.00
2022-07-26T01:33:21.419Z,10.80
2022-07-26T01:35:51.791Z,13.20
2022-07-26T01:38:22.624Z,13.20
2022-07-26T01:40:53.269Z,16.20
2022-07-26T01:43:23.862Z,16.40
2022-07-26T01:45:54.284Z,13.40
2022-07-26T01:48:24.673Z,14.00
2022-07-26T01:50:55.157Z,15.60
2022-07-26T01:53:25.655Z,15.20
2022-07-26T01:55:56.099Z,13.60
2022-07-26T01:58:26.586Z,13.60
2022-07-26T02:00:57.069Z,13.40
2022-07-26T02:03:27.441Z,13.60
2022-07-26T02:05:58.105Z,14.80
2022-07-26T02:08:28.479Z,12.80
2022-07-26T02:10:59.903Z,17.00
2022-07-26T02:13:34.803Z,14.40
2022-07-26T02:16:07.969Z,13.80
2022-07-26T02:18:38.740Z,15.20
2022-07-26T02:21:09.693Z,17.60
2022-07-26T02:23:41.946Z,14.40
2022-07-26T02:26:12.049Z,12.40
2022-07-26T02:28:42.318Z,14.40
2022-07-26T02:31:12.825Z,14.00
2022-07-26T02:33:44.822Z,12.80
2022-07-26T02:36:15.300Z,15.80
2022-07-26T02:38:45.680Z,15.00
2022-07-26T02:41:16.166Z,14.40
2022-07-26T02:43:46.977Z,13.20
2022-07-26T02:46:17.346Z,13.40
2022-07-26T02:48:47.818Z,12.80
2022-07-26T02:51:18.260Z,16.80
2022-07-26T02:53:48.610Z,14.40
2022-07-26T02:56:18.870Z,13.80
2022-07-26T02:58:49.351Z,13.40
2022-07-26T03:01:19.857Z,13.00
2022-07-26T03:03:50.965Z,12.00
2022-07-26T03:06:22.915Z,11.80
2022-07-26T03:08:55.563Z,13.20
2022-07-26T03:11:26.057Z,15.80
2022-07-26T03:13:56.380Z,14.00
2022-07-26T03:16:29.648Z,13.60
2022-07-26T03:19:00.943Z,14.20
2022-07-26T03:21:49.427Z,13.20
2022-07-26T03:24:19.851Z,12.40
2022-07-26T03:26:52.158Z,14.00
2022-07-26T03:29:22.512Z,11.20
2022-07-26T03:31:52.871Z,15.40
2022-07-26T03:34:23.248Z,15.60
2022-07-26T03:36:53.729Z,15.40
2022-07-26T03:39:24.164Z,8.00
2022-07-26T03:41:54.514Z,12.20
2022-07-26T03:44:24.927Z,16.40
2022-07-26T03:46:55.323Z,19.00
2022-07-26T03:49:25.922Z,14.80
2022-07-26T03:51:56.312Z,17.20
2022-07-26T03:54:26.682Z,15.20
2022-07-26T03:56:57.196Z,16.60
2022-07-26T03:59:27.671Z,16.20
2022-07-26T04:01:58.117Z,14.20
2022-07-26T04:04:28.595Z,17.20
2022-07-26T04:07:03.232Z,13.00
2022-07-26T04:09:32.031Z,14.40
2022-07-26T04:12:02.512Z,13.40
2022-07-26T04:14:33.077Z,17.00
2022-07-26T04:17:03.640Z,17.20
2022-07-26T04:19:33.981Z,13.40
2022-07-26T04:22:06.246Z,13.80
2022-07-26T04:24:36.888Z,14.20
2022-07-26T04:27:07.401Z,12.00
2022-07-26T04:29:38.051Z,15.00
2022-07-26T04:32:08.565Z,11.80
2022-07-26T04:34:39.125Z,13.00
2022-07-26T04:37:12.216Z,15.20
2022-07-26T04:39:42.618Z,17.00
2022-07-26T04:42:13.001Z,14.60
2022-07-26T04:44:43.377Z,14.40
2022-07-26T04:47:13.801Z,7.60
2022-07-26T04:49:52.069Z,12.60
2022-07-26T04:52:24.512Z,13.00
2022-07-26T04:54:56.099Z,12.80
2022-07-26T04:57:26.511Z,12.20
2022-07-26T05:00:16.762Z,8.80
2022-07-26T05:02:35.699Z,12.00
2022-07-26T05:05:07.044Z,12.20
2022-07-26T05:07:48.209Z,9.60
2022-07-26T05:10:19.549Z,12.00
2022-07-26T05:12:50.731Z,9.80
2022-07-26T05:15:21.091Z,8.80
2022-07-26T05:17:51.514Z,13.80
2022-07-26T05:20:27.350Z,11.60
2022-07-26T05:23:00.942Z,12.60
2022-07-26T05:25:37.511Z,11.40
2022-07-26T05:28:07.996Z,14.00
2022-07-26T05:30:38.783Z,12.20
2022-07-26T05:33:09.299Z,12.40
2022-07-26T05:35:49.740Z,11.20
2022-07-26T05:38:16.048Z,11.80
2022-07-26T05:40:50.732Z,10.60
2022-07-26T05:43:19.685Z,12.00
2022-07-26T05:45:50.236Z,11.20
2022-07-26T05:48:20.586Z,12.20
2022-07-26T05:50:51.069Z,10.80
2022-07-26T05:53:22.793Z,9.60
2022-07-26T05:55:54.616Z,12.00
2022-07-26T05:58:25.067Z,12.40
2022-07-26T06:00:55.424Z,10.00
2022-07-26T06:03:28.545Z,9.20
2022-07-26T06:06:04.889Z,11.20
2022-07-26T06:08:36.348Z,10.00
2022-07-26T06:11:06.850Z,10.40
2022-07-26T06:16:36.138Z,8.60
2022-07-26T06:19:06.684Z,11.00
2022-07-26T06:21:46.092Z,9.00
2022-07-26T06:24:18.190Z,8.20
2022-07-26T06:26:56.345Z,7.80
2022-07-26T06:29:32.304Z,7.40
2022-07-26T06:32:00.412Z,6.40
2022-07-26T06:34:31.142Z,7.20
2022-07-26T06:37:01.560Z,9.80
2022-07-26T06:39:32.040Z,7.80
2022-07-26T06:42:02.903Z,7.80
2022-07-26T06:44:33.407Z,8.60
2022-07-26T06:47:04.060Z,9.00
2022-07-26T06:49:36.908Z,8.60
2022-07-26T06:52:07.569Z,8.20
2022-07-26T06:54:38.036Z,7.40
2022-07-26T06:57:08.378Z,8.20
2022-07-26T06:59:38.654Z,9.00
2022-07-26T07:02:09.060Z,8.20
2022-07-26T07:04:39.477Z,7.00
2022-07-26T07:07:09.787Z,7.40
2022-07-26T07:09:43.511Z,8.20
2022-07-26T07:12:14.477Z,8.40
2022-07-26T07:14:44.847Z,7.00
2022-07-26T07:17:20.248Z,10.00
2022-07-26T07:19:52.285Z,6.40
2022-07-26T07:22:22.771Z,6.80
2022-07-26T07:24:53.747Z,7.00
2022-07-26T07:27:24.510Z,5.80
2022-07-26T07:29:56.638Z,5.00
2022-07-26T07:32:28.638Z,6.40
2022-07-26T07:35:01.021Z,8.20
2022-07-26T07:37:52.128Z,4.20
2022-07-26T07:40:09.977Z,4.20
2022-07-26T07:42:40.269Z,2.40
2022-07-26T07:45:11.998Z,5.40
2022-07-26T07:47:42.341Z,7.60
2022-07-26T07:50:12.808Z,5.00
2022-07-26T07:52:43.834Z,6.00
2022-07-26T07:55:36.772Z,7.20
2022-07-26T07:57:46.375Z,7.20
2022-07-26T08:00:17.819Z,6.20
2022-07-26T08:02:48.630Z,6.00
2022-07-26T08:05:19.340Z,5.60
2022-07-26T08:07:52.543Z,5.40
2022-07-26T08:10:23.601Z,7.20
2022-07-26T08:12:55.555Z,6.00
2022-07-26T08:15:26.423Z,6.00
2022-07-26T08:17:57.226Z,4.80
2022-07-26T08:20:28.977Z,5.20
2022-07-26T08:23:01.496Z,6.40
2022-07-26T08:25:34.688Z,6.80
2022-07-26T08:28:31.042Z,3.20
2022-07-26T08:30:46.608Z,5.20
2022-07-26T08:33:17.017Z,6.00
2022-07-26T08:35:48.247Z,6.00
2022-07-26T08:38:18.906Z,5.00
2022-07-26T08:40:49.327Z,5.00
2022-07-26T08:43:19.867Z,4.80
2022-07-26T08:45:51.001Z,6.60
2022-07-26T08:48:22.116Z,5.20
2022-07-26T08:50:53.148Z,6.80
2022-07-26T08:53:24.341Z,5.40
2022-07-26T08:56:07.064Z,7.20
2022-07-26T08:58:33.839Z,7.60
2022-07-26T09:01:07.154Z,6.80
2022-07-26T09:03:39.158Z,6.20
2022-07-26T09:06:22.304Z,6.80
2022-07-26T09:08:53.581Z,7.80
2022-07-26T09:11:30.056Z,4.00
2022-07-26T09:14:03.028Z,6.80
2022-07-26T09:16:43.972Z,7.40
2022-07-26T09:19:22.452Z,5.40
2022-07-26T09:21:54.510Z,5.00
2022-07-26T09:24:38.202Z,5.40
2022-07-26T09:27:14.118Z,8.20
2022-07-26T09:29:53.145Z,4.40
2022-07-26T09:32:26.606Z,4.40
2022-07-26T09:35:44.661Z,6.20
2022-07-26T09:37:49.187Z,5.20
2022-07-26T09:40:20.252Z,5.80
2022-07-26T09:46:06.729Z,5.80
2022-07-26T09:49:08.131Z,6.60
2022-07-26T09:51:13.856Z,4.40
2022-07-26T09:53:46.991Z,5.40
2022-07-26T09:56:17.722Z,5.40
2022-07-26T09:58:50.773Z,4.00
2022-07-26T10:01:21.308Z,6.80
2022-07-26T10:03:53.193Z,5.80
2022-07-26T10:06:30.083Z,4.80
2022-07-26T10:09:02.188Z,4.20
2022-07-26T10:11:54.780Z,5.00
2022-07-26T10:17:58.746Z,3.40
2022-07-26T10:20:44.243Z,5.40
2022-07-26T10:23:40.184Z,4.20
2022-07-26T10:26:39.086Z,5.00
2022-07-26T10:29:22.471Z,5.00
2022-07-26T10:32:19.846Z,6.40
2022-07-26T10:35:09.022Z,3.80
2022-07-26T10:37:28.305Z,4.60
2022-07-26T10:40:19.275Z,4.60
2022-07-26T10:42:53.887Z,4.00
2022-07-26T10:45:29.829Z,4.60
2022-07-26T10:48:20.984Z,4.00
2022-07-26T10:51:06.957Z,4.40
2022-07-26T10:53:43.611Z,4.80
2022-07-26T10:56:29.861Z,3.60
2022-07-26T10:58:58.396Z,4.60
2022-07-26T11:01:43.117Z,3.20
2022-07-26T11:04:23.989Z,4.60
2022-07-26T11:06:59.171Z,3.60
2022-07-26T11:09:36.528Z,5.40
2022-07-26T11:12:39.276Z,5.00
2022-07-26T11:18:17.217Z,1.60
2022-07-26T11:20:53.174Z,3.80
2022-07-26T11:23:44.072Z,4.00
2022-07-26T11:26:22.130Z,4.00
2022-07-26T11:28:56.333Z,4.80
2022-07-26T11:31:51.984Z,3.60
2022-07-26T11:34:26.708Z,5.60
2022-07-26T11:36:59.683Z,5.40
2022-07-26T11:39:43.704Z,3.80
2022-07-26T11:42:13.004Z,5.60
2022-07-26T11:44:53.568Z,4.20
2022-07-26T11:47:28.280Z,5.60
2022-07-26T11:50:13.957Z,4.80
2022-07-26T11:52:46.288Z,6.80
2022-07-26T11:55:32.019Z,8.00
2022-07-26T11:58:08.581Z,6.60
2022-07-26T12:00:39.576Z,7.40
2022-07-26T12:03:10.719Z,3.00
2022-07-26T12:05:42.837Z,5.80
2022-07-26T12:08:16.817Z,5.00
2022-07-26T12:10:59.418Z,5.20
2022-07-26T12:13:29.768Z,5.80
2022-07-26T12:16:25.268Z,4.60
2022-07-26T12:18:57.853Z,4.80
2022-07-26T12:22:07.880Z,4.60
2022-07-26T12:25:06.587Z,4.00
2022-07-26T12:27:41.274Z,5.20
2022-07-26T12:30:19.193Z,4.60
2022-07-26T12:35:34.160Z,6.00
2022-07-26T12:38:08.852Z,4.20
2022-07-26T12:40:44.305Z,6.00
2022-07-26T12:43:14.646Z,4.00
2022-07-26T12:45:46.801Z,4.00
2022-07-26T12:48:17.785Z,4.40
2022-07-26T12:50:48.073Z,4.80
2022-07-26T12:53:21.170Z,6.40
2022-07-26T12:55:52.237Z,4.80
2022-07-26T12:58:22.938Z,5.00
2022-07-26T13:04:05.202Z,4.20
2022-07-26T13:06:36.141Z,4.60
2022-07-26T13:09:06.558Z,3.00
2022-07-26T13:11:39.625Z,5.00
2022-07-26T13:14:14.220Z,3.60
2022-07-26T13:16:46.078Z,5.00
2022-07-26T13:19:17.296Z,4.20
2022-07-26T13:21:53.073Z,4.20
2022-07-26T13:24:23.345Z,4.20
2022-07-26T13:27:00.755Z,3.80
2022-07-26T13:29:31.701Z,5.60
2022-07-26T13:32:07.202Z,4.20
2022-07-26T13:34:38.002Z,5.00
2022-07-26T13:37:10.291Z,4.00
2022-07-26T13:39:41.601Z,4.20
2022-07-26T13:42:12.712Z,4.40
2022-07-26T13:44:47.408Z,4.40
2022-07-26T13:47:20.148Z,3.00
2022-07-26T13:49:51.386Z,4.20
2022-07-26T13:52:21.851Z,5.20
2022-07-26T13:54:53.773Z,3.60
2022-07-26T13:57:24.638Z,5.00
2022-07-26T14:00:02.459Z,7.00
2022-07-26T14:02:35.087Z,6.80
2022-07-26T14:05:05.832Z,5.20
2022-07-26T14:07:39.766Z,6.00
2022-07-26T14:10:11.985Z,7.00
2022-07-26T14:12:47.238Z,6.40
2022-07-26T14:15:23.000Z,8.40
2022-07-26T14:17:53.812Z,10.00
2022-07-26T14:20:25.604Z,6.80
2022-07-26T14:23:01.790Z,8.00
2022-07-26T14:25:35.253Z,9.40
2022-07-26T14:28:05.777Z,38.80
2022-07-26T14:30:44.423Z,9.20
2022-07-26T14:33:15.792Z,9.60
2022-07-26T14:35:46.297Z,17.20
2022-07-26T14:38:24.333Z,9.80
2022-07-26T14:40:52.137Z,11.60
2022-07-26T14:43:27.751Z,7.80
2022-07-26T14:46:00.820Z,9.40
2022-07-26T14:48:53.456Z,10.60
2022-07-26T14:51:12.436Z,8.40
2022-07-26T14:53:43.460Z,47.80
2022-07-26T14:56:14.531Z,8.80
2022-07-26T14:58:46.778Z,9.40
2022-07-26T15:01:17.426Z,11.40
2022-07-26T15:03:48.568Z,7.60
2022-07-26T15:06:19.022Z,8.80
2022-07-26T15:08:50.039Z,9.20
2022-07-26T15:11:20.344Z,10.60
2022-07-26T15:13:51.747Z,9.80
2022-07-26T15:16:23.094Z,10.00
2022-07-26T15:18:56.035Z,12.80
2022-07-26T15:21:27.129Z,9.00
2022-07-26T15:24:00.181Z,9.40
2022-07-26T15:26:34.216Z,9.00
2022-07-26T15:29:06.239Z,8.60
2022-07-26T15:31:37.921Z,10.60
2022-07-26T15:34:09.581Z,8.40
2022-07-26T15:36:42.957Z,8.00
2022-07-26T15:39:17.061Z,7.80
2022-07-26T15:41:51.628Z,6.80
2022-07-26T15:44:25.531Z,7.20
2022-07-26T15:46:55.849Z,6.60
2022-07-26T15:49:26.993Z,9.80
2022-07-26T15:52:01.530Z,6.00
2022-07-26T15:54:33.256Z,6.40
2022-07-26T15:57:06.219Z,7.00
2022-07-26T15:59:38.191Z,5.00
2022-07-26T16:02:10.806Z,4.20
2022-07-26T16:04:41.187Z,6.00
2022-07-26T16:07:11.833Z,4.00
2022-07-26T16:09:42.651Z,5.40
2022-07-26T16:12:13.608Z,5.80
2022-07-26T16:14:44.605Z,4.60
2022-07-26T16:17:16.141Z,8.20
2022-07-26T16:19:46.649Z,4.40
2022-07-26T16:22:21.716Z,2.00
2022-07-26T16:24:52.397Z,4.40
2022-07-26T16:27:22.935Z,3.00
2022-07-26T16:29:59.228Z,3.40
2022-07-26T16:32:30.437Z,4.20
2022-07-26T16:35:06.908Z,3.60
2022-07-26T16:37:38.570Z,2.00
2022-07-26T16:40:10.683Z,3.60
2022-07-26T16:42:41.063Z,3.00
2022-07-26T16:45:11.654Z,1.80
2022-07-26T16:47:54.581Z,3.40
2022-07-26T16:50:28.969Z,3.40
2022-07-26T16:52:59.713Z,1.20
2022-07-26T16:55:30.584Z,4.40
2022-07-26T16:58:06.943Z,3.00
2022-07-26T17:00:39.927Z,3.60
2022-07-26T17:06:28.737Z,4.80
2022-07-26T17:08:59.186Z,6.80
2022-07-26T17:11:45.551Z,6.60
2022-07-26T17:14:16.310Z,4.00
2022-07-26T17:16:51.437Z,5.80
2022-07-26T17:19:22.716Z,3.00
2022-07-26T17:21:53.230Z,4.00
2022-07-26T17:24:23.908Z,6.60
2022-07-26T17:26:54.521Z,5.00
2022-07-26T17:29:24.986Z,6.00
2022-07-26T17:31:55.462Z,6.20
2022-07-26T17:34:30.202Z,6.00
2022-07-26T17:37:21.821Z,3.60
2022-07-26T17:39:59.810Z,5.60
2022-07-26T17:42:31.064Z,5.20
2022-07-26T17:45:13.301Z,4.40
2022-07-26T17:47:43.933Z,4.40
2022-07-26T17:52:52.304Z,4.60
2022-07-26T17:55:27.083Z,4.00
2022-07-26T17:57:58.585Z,5.60
2022-07-26T18:00:29.622Z,7.00
2022-07-26T18:06:24.619Z,6.00
2022-07-26T18:08:55.764Z,6.80
2022-07-26T18:11:29.169Z,7.40
2022-07-26T18:27:08.065Z,8.20
2022-07-26T18:29:40.405Z,6.20
2022-07-26T18:32:26.666Z,7.00
2022-07-26T18:34:57.623Z,8.00
2022-07-26T18:37:28.503Z,8.00
2022-07-26T18:39:58.885Z,7.80
2022-07-26T18:42:29.407Z,7.20
2022-07-26T18:45:00.180Z,7.00
2022-07-26T18:47:30.648Z,7.80
2022-07-26T18:50:02.789Z,9.00
2022-07-26T18:52:33.348Z,9.00
2022-07-26T18:55:06.803Z,11.20
2022-07-26T18:57:39.546Z,11.40
2022-07-26T19:00:13.028Z,10.60
2022-07-26T19:02:46.784Z,15.60
2022-07-26T19:05:21.822Z,14.80
2022-07-26T19:07:55.678Z,14.00
2022-07-26T19:10:27.693Z,10.00
2022-07-26T19:13:00.977Z,15.60
2022-07-26T19:15:32.622Z,14.00
2022-07-26T19:18:10.995Z,13.40
2022-07-26T19:20:44.610Z,12.60
2022-07-26T19:23:15.361Z,11.80
2022-07-26T19:25:45.882Z,10.20
2022-07-26T19:28:17.722Z,12.00
2022-07-26T19:30:51.416Z,12.80
2022-07-26T19:33:23.942Z,12.20
2022-07-26T19:35:54.510Z,11.40
2022-07-26T19:38:25.667Z,13.80
2022-07-26T19:41:06.956Z,13.60
2022-07-26T19:43:40.501Z,12.00
2022-07-26T19:46:13.514Z,11.20
2022-07-26T19:48:48.349Z,12.20
2022-07-26T19:51:32.718Z,12.40
2022-07-26T19:54:12.469Z,12.20
2022-07-26T19:56:42.968Z,8.60
2022-07-26T19:59:16.888Z,14.40
2022-07-26T20:01:48.632Z,11.40
2022-07-26T20:04:20.355Z,11.20
2022-07-26T20:06:51.379Z,14.20
2022-07-26T20:09:28.439Z,10.00
2022-07-26T20:11:59.947Z,10.40
2022-07-26T20:14:31.165Z,12.60
2022-07-26T20:17:13.081Z,11.60
2022-07-26T20:19:37.958Z,8.00
2022-07-26T20:22:13.447Z,9.20
2022-07-26T20:24:43.859Z,13.20
2022-07-26T20:27:15.388Z,10.80
2022-07-26T20:30:01.140Z,10.00
2022-07-26T20:32:31.609Z,11.00
2022-07-26T20:38:27.999Z,12.80
2022-07-26T20:40:58.688Z,11.80
2022-07-26T20:43:32.183Z,11.80
2022-07-26T20:46:04.607Z,10.80
2022-07-26T20:48:35.180Z,7.40
2022-07-26T20:51:05.883Z,8.00
2022-07-26T20:53:39.353Z,13.00
2022-07-26T20:56:10.354Z,10.80
2022-07-26T20:58:41.352Z,12.80
2022-07-26T21:01:14.031Z,11.20
2022-07-26T21:03:48.031Z,13.40
2022-07-26T21:06:21.595Z,11.60
2022-07-26T21:08:52.481Z,12.00
2022-07-26T21:11:24.961Z,12.60
2022-07-26T21:13:59.168Z,12.20
2022-07-26T21:16:30.111Z,11.80
2022-07-26T21:19:05.346Z,13.60
2022-07-26T21:21:38.135Z,13.80
2022-07-26T21:24:08.999Z,13.00
2022-07-26T21:26:39.396Z,11.20
2022-07-26T21:29:10.374Z,12.00
2022-07-26T21:32:14.125Z,13.80
2022-07-26T21:34:45.382Z,11.40
2022-07-26T21:37:15.848Z,10.60
2022-07-26T21:39:46.959Z,7.80
2022-07-26T21:42:17.790Z,12.40
2022-07-26T21:44:48.706Z,11.80
2022-07-26T21:47:19.165Z,9.40
2022-07-26T21:49:50.338Z,11.00
2022-07-26T21:52:20.719Z,11.40
2022-07-26T21:54:51.252Z,13.00
2022-07-26T21:57:21.751Z,11.60
2022-07-26T21:59:52.402Z,10.20
2022-07-26T22:02:22.887Z,8.00
2022-07-26T22:04:54.211Z,10.00
2022-07-26T22:07:26.386Z,11.20
2022-07-26T22:09:58.186Z,10.00
2022-07-26T22:12:28.734Z,10.20
2022-07-26T22:14:59.779Z,11.60
2022-07-26T22:17:30.300Z,10.60
2022-07-26T22:20:01.285Z,11.20
2022-07-26T22:22:32.153Z,12.80
2022-07-26T22:25:02.504Z,12.20
2022-07-26T22:27:33.121Z,8.00
2022-07-26T22:30:03.997Z,13.00
2022-07-26T22:32:35.178Z,11.60
2022-07-26T22:35:06.593Z,12.40
2022-07-26T22:37:37.393Z,11.40
2022-07-26T22:40:08.927Z,13.00
2022-07-26T22:42:39.543Z,8.80
2022-07-26T22:45:10.756Z,9.20
2022-07-26T22:47:46.957Z,11.20
2022-07-26T22:50:14.367Z,11.00
2022-07-26T22:52:45.212Z,12.40
2022-07-26T22:55:22.548Z,9.20
2022-07-26T22:57:53.069Z,11.00
2022-07-26T23:00:23.681Z,11.40
2022-07-26T23:02:54.853Z,9.60
2022-07-26T23:05:37.434Z,12.00
2022-07-26T23:08:03.286Z,11.40
2022-07-26T23:10:30.231Z,9.20
2022-07-26T23:13:00.593Z,9.00
2022-07-26T23:15:31.532Z,10.80
2022-07-26T23:18:02.560Z,9.80
2022-07-26T23:20:33.179Z,7.00
2022-07-26T23:23:03.657Z,10.80
2022-07-26T23:25:34.218Z,10.20
2022-07-26T23:28:04.890Z,9.00
2022-07-26T23:30:36.832Z,7.40
2022-07-26T23:33:07.134Z,8.00
2022-07-26T23:35:38.317Z,8.20
2022-07-26T23:38:08.771Z,9.20
2022-07-26T23:40:39.335Z,7.40
2022-07-26T23:43:11.888Z,8.00
2022-07-26T23:45:42.739Z,8.20
2022-07-26T23:48:13.422Z,10.20
2022-07-26T23:50:43.952Z,6.00
2022-07-26T23:53:14.393Z,10.60
2022-07-26T23:55:44.724Z,9.20
2022-07-26T23:58:17.456Z,9.60
